CYQI

Yarmouth Airport

Yarmouth, , Canada
METAR CYQI 172100Z 32008KT 15SM FEW035 BKN058 05/M01 A2998 RMK SC2SC5 SLP154
Observed Flight Rules
Nov-17 @ 21:00 UTC (36 minutes ago) Visual Flight Rules
Wind Visibility Clouds
320° at 8 knots 15 miles
  • Few at 3,500' AGL
  • Broken at 5,800' AGL
Temperatures Readings
Current 5°C / 41°F
Dewpoint -1°C / 30°F
Humidity 66%
Altimeter 29.98" Hg
Pressure 1015.4 hPa
Elevation 43
METAR CYQI 172100Z 32008KT 15SM FEW035 BKN058 05/M01 A2998 RMK SC2SC5 SLP154
Observed Flight Rules
Nov-17 @ 21:00 UTC
(36 minutes ago)
VFR
Wind Visibility
320° at 8 knots 15 miles
Clouds
  • Few at 3,500' AGL
  • Broken at 5,800' AGL
Temperature Dewpoint
5°C / 41°F -1°C / 30°F
Humidity Altimeter Pressure
66% 29.98" Hg 1015.4 hPa